createdAt,value
2018-06-28T08:17:03.690Z,24.7
2018-06-28T08:17:53.722Z,24.7
2018-06-28T08:18:43.768Z,24.6
2018-06-28T08:19:33.844Z,24.6
2018-06-28T08:20:23.897Z,24.6
2018-06-28T08:21:13.971Z,24.6
2018-06-28T08:22:04.045Z,24.6
2018-06-28T08:22:53.539Z,24.6
2018-06-28T08:23:44.161Z,24.6
2018-06-28T08:24:33.935Z,24.6
2018-06-28T08:25:24.295Z,24.6
2018-06-28T08:26:14.075Z,24.6
2018-06-28T08:27:04.980Z,24.6
2018-06-28T08:27:54.200Z,24.6
2018-06-28T08:28:44.250Z,24.6
2018-06-28T08:29:34.590Z,24.7
2018-06-28T08:30:24.094Z,24.7
2018-06-28T08:31:14.452Z,24.7
2018-06-28T08:32:04.499Z,24.8
2018-06-28T08:32:54.849Z,24.8
2018-06-28T08:33:44.626Z,24.9
2018-06-28T08:34:34.685Z,24.9
2018-06-28T08:35:25.059Z,25
2018-06-28T08:36:15.216Z,25.1
2018-06-28T08:37:05.157Z,25.2
2018-06-28T08:37:54.934Z,25.3
2018-06-28T08:38:45.009Z,25.4
2018-06-28T08:39:35.343Z,25.4
2018-06-28T08:40:25.457Z,25.5
2018-06-28T08:41:15.181Z,25.6
2018-06-28T08:42:05.260Z,25.6
2018-06-28T08:42:55.417Z,25.6
2018-06-28T08:43:45.647Z,25.7
2018-06-28T08:44:35.761Z,25.8
2018-06-28T08:45:25.791Z,25.8
2018-06-28T08:46:15.839Z,25.8
2018-06-28T08:47:05.894Z,25.8
2018-06-28T08:47:55.963Z,25.8
2018-06-28T08:48:45.757Z,25.7
2018-06-28T08:49:36.088Z,25.6
2018-06-28T08:50:25.898Z,25.6
2018-06-28T08:51:16.235Z,25.6
2018-06-28T08:52:06.308Z,25.5
2018-06-28T08:52:56.358Z,25.4
2018-06-28T08:53:46.144Z,25.4
2018-06-28T08:54:36.493Z,25.3
2018-06-28T08:55:26.256Z,25.3
2018-06-28T08:56:16.621Z,25.1
2018-06-28T08:57:06.681Z,25.1
2018-06-28T08:57:56.250Z,24.9
2018-06-28T08:58:46.781Z,24.9
2018-06-28T08:59:36.899Z,24.8
2018-06-28T09:00:26.919Z,24.7
2018-06-28T09:01:16.960Z,24.6
2018-06-28T09:02:07.038Z,24.5
2018-06-28T09:02:56.817Z,24.4
2018-06-28T09:03:47.220Z,24.4
2018-06-28T09:04:36.942Z,24.3
2018-06-28T09:05:27.302Z,24.3
2018-06-28T09:06:17.366Z,24.2
2018-06-28T09:07:07.418Z,24.1
2018-06-28T09:07:57.201Z,24.1
2018-06-28T09:08:47.528Z,24
2018-06-28T09:09:37.330Z,23.9
2018-06-28T09:10:27.374Z,23.9
2018-06-28T09:11:17.546Z,23.9
2018-06-28T09:12:07.504Z,23.9
2018-06-28T09:12:57.841Z,23.9
2018-06-28T09:13:47.907Z,23.9
2018-06-28T09:14:37.989Z,23.9
2018-06-28T09:15:28.620Z,23.9
2018-06-28T09:16:18.100Z,24
2018-06-28T09:17:08.168Z,24
2018-06-28T09:17:57.669Z,24.1
2018-06-28T09:18:48.291Z,24.1
2018-06-28T09:19:38.357Z,24.1
2018-06-28T09:20:27.956Z,24.1
2018-06-28T09:21:18.475Z,24.2
2018-06-28T09:22:08.269Z,24.2
2018-06-28T09:22:58.899Z,24.3
2018-06-28T09:23:48.668Z,24.3
2018-06-28T09:24:38.461Z,24.4
2018-06-28T09:25:28.788Z,24.4
2018-06-28T09:26:18.563Z,24.5
2018-06-28T09:27:08.907Z,24.6
2018-06-28T09:27:58.975Z,24.7
2018-06-28T09:28:48.772Z,24.8
2018-06-28T09:29:38.536Z,24.9
2018-06-28T09:30:28.968Z,25
2018-06-28T09:31:18.949Z,25.1
2018-06-28T09:32:09.294Z,25.3
2018-06-28T09:32:59.341Z,25.4
2018-06-28T09:33:49.418Z,25.5
2018-06-28T09:34:39.512Z,25.6
2018-06-28T09:35:29.533Z,25.8
2018-06-28T09:36:19.590Z,25.9
2018-06-28T09:37:09.397Z,26
2018-06-28T09:37:59.730Z,26.1
2018-06-28T09:38:49.784Z,26.3
2018-06-28T09:39:39.848Z,26.3
2018-06-28T09:40:29.922Z,26.4
2018-06-28T09:41:19.712Z,26.5
2018-06-28T09:42:09.501Z,26.6
2018-06-28T09:43:00.104Z,26.6
2018-06-28T09:43:49.900Z,26.6
2018-06-28T09:44:40.003Z,26.7
2018-06-28T09:45:30.341Z,26.8
2018-06-28T09:46:20.355Z,26.8
2018-06-28T09:47:10.406Z,26.8
2018-06-28T09:48:00.199Z,26.8
2018-06-28T09:48:50.549Z,26.7
2018-06-28T09:49:40.603Z,26.7
2018-06-28T09:50:30.686Z,26.6
2018-06-28T09:51:20.446Z,26.6
2018-06-28T09:52:10.551Z,26.5
2018-06-28T09:53:00.852Z,26.4
2018-06-28T09:53:50.645Z,26.4
2018-06-28T09:54:40.785Z,26.3
2018-06-28T09:55:31.067Z,26.3
2018-06-28T09:56:20.569Z,26.2
2018-06-28T09:57:10.901Z,26.1
2018-06-28T09:58:01.233Z,26.1
2018-06-28T09:58:51.013Z,26
2018-06-28T09:59:41.071Z,25.9
2018-06-28T10:00:32.077Z,25.9
2018-06-28T10:01:21.491Z,25.8
2018-06-28T10:02:11.573Z,25.8
2018-06-28T10:03:01.627Z,25.7
2018-06-28T10:03:51.669Z,25.6
2018-06-28T10:04:41.801Z,25.6
2018-06-28T10:05:31.827Z,25.5
2018-06-28T10:06:21.028Z,25.5
2018-06-28T10:07:11.684Z,25.4
2018-06-28T10:08:01.710Z,25.4
2018-06-28T10:08:52.047Z,25.4
2018-06-28T10:09:42.124Z,25.4
2018-06-28T10:10:31.923Z,25.3
2018-06-28T10:11:21.972Z,25.3
2018-06-28T10:12:12.301Z,25.3
2018-06-28T10:13:02.368Z,25.4
2018-06-28T10:13:52.168Z,25.4
2018-06-28T10:14:42.702Z,25.4
2018-06-28T10:15:32.554Z,25.4
2018-06-28T10:16:22.667Z,25.4
2018-06-28T10:17:12.679Z,25.4
2018-06-28T10:18:03.029Z,25.4
2018-06-28T10:18:52.800Z,25.4
2018-06-28T10:19:42.931Z,25.4
2018-06-28T10:20:32.457Z,25.5
2018-06-28T10:21:22.990Z,25.5
2018-06-28T10:22:13.061Z,25.5
2018-06-28T10:23:03.164Z,25.5
2018-06-28T10:23:52.645Z,25.5
2018-06-28T10:24:43.657Z,25.5
2018-06-28T10:25:33.300Z,25.5
2018-06-28T10:26:23.362Z,25.6
2018-06-28T10:27:13.476Z,25.6
2018-06-28T10:28:03.496Z,25.5
2018-06-28T10:28:53.552Z,25.5
2018-06-28T10:29:43.647Z,25.4
2018-06-28T10:30:33.683Z,25.4
2018-06-28T10:31:23.769Z,25.4
2018-06-28T10:32:13.806Z,25.4
2018-06-28T10:33:03.887Z,25.4
2018-06-28T10:33:53.933Z,25.3
2018-06-28T10:34:43.995Z,25.3
2018-06-28T10:35:34.056Z,25.3
2018-06-28T10:36:24.122Z,25.2
2018-06-28T10:37:14.174Z,25.2
2018-06-28T10:38:04.239Z,25.2
2018-06-28T10:38:54.305Z,25.1
2018-06-28T10:39:44.382Z,25.1
2018-06-28T10:40:33.900Z,25.1
2018-06-28T10:41:24.502Z,25.1
2018-06-28T10:42:14.562Z,25.1
2018-06-28T10:43:04.627Z,25
2018-06-28T10:43:54.688Z,25
2018-06-28T10:44:44.760Z,25
2018-06-28T10:45:34.830Z,25
2018-06-28T10:46:24.872Z,25
2018-06-28T10:47:14.929Z,25
2018-06-28T10:48:05.015Z,25
2018-06-28T10:48:54.786Z,24.9
2018-06-28T10:49:45.138Z,24.9
2018-06-28T10:50:35.240Z,24.9
2018-06-28T10:51:24.406Z,24.8
2018-06-28T10:52:15.059Z,24.8
2018-06-28T10:53:05.390Z,24.7
2018-06-28T10:53:55.741Z,24.6
2018-06-28T10:54:45.537Z,24.5
2018-06-28T10:55:35.556Z,24.4
2018-06-28T10:56:25.838Z,24.4
2018-06-28T10:57:15.715Z,24.3
2018-06-28T10:58:05.511Z,24.3
2018-06-28T10:58:55.277Z,24.2
2018-06-28T10:59:45.899Z,24.2
2018-06-28T11:00:35.960Z,24.1
2018-06-28T11:01:25.745Z,24.1
2018-06-28T11:02:16.070Z,24
2018-06-28T11:03:05.861Z,24
2018-06-28T11:03:56.220Z,23.9
2018-06-28T11:04:45.983Z,23.9
2018-06-28T11:05:36.334Z,23.8
2018-06-28T11:06:26.118Z,23.8
2018-06-28T11:07:16.170Z,23.7
2018-06-28T11:08:06.532Z,23.6
2018-06-28T11:08:56.577Z,23.5
2018-06-28T11:09:46.365Z,23.4
2018-06-28T11:10:36.691Z,23.4
2018-06-28T11:11:26.475Z,23.4
2018-06-28T11:12:16.846Z,23.4
2018-06-28T11:13:06.603Z,23.4
2018-06-28T11:13:56.681Z,23.5
2018-06-28T11:14:47.029Z,23.6
2018-06-28T11:15:37.265Z,23.7
2018-06-28T11:16:27.144Z,23.9
2018-06-28T11:17:17.198Z,24
2018-06-28T11:18:07.256Z,24.2
2018-06-28T11:18:57.334Z,24.4
2018-06-28T11:19:47.389Z,24.7
2018-06-28T11:20:37.183Z,25
2018-06-28T11:21:27.248Z,25.3
2018-06-28T11:22:17.580Z,25.6
2018-06-28T11:23:07.423Z,25.9
2018-06-28T11:23:57.420Z,26.1
2018-06-28T11:24:47.764Z,26.4
2018-06-28T11:25:37.825Z,26.6
2018-06-28T11:26:27.907Z,26.9
2018-06-28T11:27:17.404Z,27.1
2018-06-28T11:28:08.020Z,27.3
2018-06-28T11:28:58.079Z,27.4
2018-06-28T11:29:48.174Z,27.6
2018-06-28T11:30:37.949Z,27.6
2018-06-28T11:31:28.257Z,27.7
2018-06-28T11:32:18.338Z,27.7
2018-06-28T11:33:08.392Z,27.7
2018-06-28T11:33:58.277Z,27.8
2018-06-28T11:34:48.230Z,27.7
2018-06-28T11:35:38.297Z,27.7
2018-06-28T11:36:28.377Z,27.7
2018-06-28T11:37:18.431Z,27.6
2018-06-28T11:38:08.769Z,27.6
2018-06-28T11:38:58.580Z,27.6
2018-06-28T11:39:48.914Z,27.6
2018-06-28T11:40:38.700Z,27.6
2018-06-28T11:41:29.031Z,27.5
2018-06-28T11:42:19.102Z,27.5
2018-06-28T11:43:09.158Z,27.4
2018-06-28T11:43:59.208Z,27.4
2018-06-28T11:44:48.974Z,27.4
2018-06-28T11:45:38.508Z,27.4
2018-06-28T11:46:28.852Z,27.3
2018-06-28T11:47:19.465Z,27.3
2018-06-28T11:48:09.277Z,27.3
2018-06-28T11:48:59.587Z,27.2
2018-06-28T11:49:49.408Z,27.1
2018-06-28T11:50:39.715Z,27.1
2018-06-28T11:51:29.791Z,27.1
2018-06-28T11:52:19.765Z,27
2018-06-28T11:53:09.917Z,26.9
2018-06-28T11:53:59.969Z,26.9
2018-06-28T11:54:50.030Z,26.8
2018-06-28T11:55:39.824Z,26.8
2018-06-28T11:56:30.159Z,26.8
2018-06-28T11:57:20.236Z,26.6
2018-06-28T11:58:10.001Z,26.6
2018-06-28T11:59:00.334Z,26.5
2018-06-28T11:59:50.127Z,26.4
2018-06-28T12:00:40.261Z,26.3
2018-06-28T12:01:30.522Z,26.2
2018-06-28T12:02:20.619Z,26.1
2018-06-28T12:03:10.724Z,26
2018-06-28T12:04:00.707Z,25.9
2018-06-28T12:04:50.779Z,25.8
2018-06-28T12:05:41.374Z,25.7
2018-06-28T12:06:30.623Z,25.6
2018-06-28T12:07:20.989Z,25.6
2018-06-28T12:08:11.022Z,25.5
2018-06-28T12:09:01.098Z,25.4
2018-06-28T12:09:51.140Z,25.4
2018-06-28T12:10:41.219Z,25.4
2018-06-28T12:11:31.287Z,25.4
2018-06-28T12:12:21.078Z,25.4
2018-06-28T12:13:11.412Z,25.3
2018-06-28T12:14:01.489Z,25.3
2018-06-28T12:14:51.553Z,25.3
2018-06-28T12:15:41.337Z,25.3
2018-06-28T12:16:31.672Z,25.3
2018-06-28T12:17:21.709Z,25.3
2018-06-28T12:18:11.504Z,25.3
2018-06-28T12:19:01.845Z,25.4
2018-06-28T12:19:51.673Z,25.4
2018-06-28T12:20:41.707Z,25.4
2018-06-28T12:21:32.038Z,25.4
2018-06-28T12:22:22.290Z,25.4
2018-06-28T12:23:11.638Z,25.4
2018-06-28T12:24:02.244Z,25.4
2018-06-28T12:24:52.297Z,25.5
2018-06-28T12:25:42.076Z,25.5
2018-06-28T12:26:32.131Z,25.5
2018-06-28T12:27:22.486Z,25.5
2018-06-28T12:28:12.263Z,25.6
2018-06-28T12:29:02.606Z,25.6
2018-06-28T12:29:52.668Z,25.6
2018-06-28T12:30:42.470Z,25.6
2018-06-28T12:31:32.790Z,25.7
2018-06-28T12:32:22.838Z,25.7
2018-06-28T12:33:12.934Z,25.8
2018-06-28T12:34:02.992Z,25.8
2018-06-28T12:34:53.056Z,25.8
2018-06-28T12:35:43.108Z,25.8
2018-06-28T12:36:33.174Z,25.8
2018-06-28T12:37:22.955Z,25.8
2018-06-28T12:38:13.054Z,25.9
2018-06-28T12:39:03.368Z,25.8
2018-06-28T12:39:53.418Z,25.9
2018-06-28T12:40:43.218Z,25.9
2018-06-28T12:41:33.263Z,25.9
2018-06-28T12:42:23.342Z,25.8
2018-06-28T12:43:13.669Z,25.8
2018-06-28T12:44:03.737Z,25.8
2018-06-28T12:44:53.801Z,25.7
2018-06-28T12:45:43.877Z,25.6
2018-06-28T12:46:34.264Z,25.6
2018-06-28T12:47:23.986Z,25.5
2018-06-28T12:48:13.778Z,25.4
2018-06-28T12:49:03.861Z,25.3
2018-06-28T12:49:54.223Z,25.3
2018-06-28T12:50:44.241Z,25.2
2018-06-28T12:51:34.047Z,25.1
2018-06-28T12:52:24.404Z,25.1
2018-06-28T12:53:14.444Z,25
2018-06-28T12:54:04.513Z,25
2018-06-28T12:54:54.547Z,24.9
2018-06-28T12:55:44.371Z,24.9
2018-06-28T12:56:34.680Z,24.9
2018-06-28T12:57:24.747Z,24.9
2018-06-28T12:58:14.538Z,24.8
2018-06-28T12:59:04.591Z,24.8
2018-06-28T12:59:54.842Z,24.8
2018-06-28T13:00:45.146Z,24.8
2018-06-28T13:01:35.113Z,24.8
2018-06-28T13:02:25.138Z,24.8
2018-06-28T13:03:15.197Z,24.7
2018-06-28T13:04:04.984Z,24.7
2018-06-28T13:04:55.042Z,24.7
2018-06-28T13:05:45.369Z,24.6
2018-06-28T13:06:35.454Z,24.7
2018-06-28T13:07:25.243Z,24.6
2018-06-28T13:08:15.344Z,24.6
2018-06-28T13:09:05.685Z,24.6
2018-06-28T13:09:55.686Z,24.6
2018-06-28T13:10:45.748Z,24.6
2018-06-28T13:11:35.559Z,24.6
2018-06-28T13:12:25.332Z,24.6
2018-06-28T13:13:15.962Z,24.6
2018-06-28T13:14:06.035Z,24.6
2018-06-28T13:14:55.811Z,24.6
2018-06-28T13:15:46.136Z,24.6
2018-06-28T13:16:36.190Z,24.6
2018-06-28T13:17:26.261Z,24.6
2018-06-28T13:18:16.032Z,24.7
2018-06-28T13:19:06.392Z,24.7
2018-06-28T13:19:56.590Z,24.7
2018-06-28T13:20:46.520Z,24.8
2018-06-28T13:21:36.568Z,24.7
2018-06-28T13:22:26.641Z,24.8
2018-06-28T13:23:16.712Z,24.7
2018-06-28T13:24:06.766Z,24.8
2018-06-28T13:24:56.822Z,24.7
2018-06-28T13:25:46.322Z,24.7
2018-06-28T13:26:36.662Z,24.7
2018-06-28T13:27:27.032Z,24.7
2018-06-28T13:28:17.084Z,24.7
2018-06-28T13:29:07.144Z,24.7
2018-06-28T13:29:56.922Z,24.7
2018-06-28T13:30:47.298Z,24.7
2018-06-28T13:31:36.793Z,24.7
2018-06-28T13:32:27.388Z,24.7
2018-06-28T13:33:17.222Z,24.6
2018-06-28T13:34:07.537Z,24.6
2018-06-28T13:34:57.609Z,24.6
2018-06-28T13:35:47.359Z,24.6
2018-06-28T13:36:37.698Z,24.6
2018-06-28T13:37:27.778Z,24.6
2018-06-28T13:38:17.542Z,24.6
2018-06-28T13:39:07.877Z,24.6
2018-06-28T13:39:57.952Z,24.6
2018-06-28T13:40:48.879Z,24.6
2018-06-28T13:41:40.644Z,24.6
2018-06-28T13:42:28.216Z,24.6
2018-06-28T13:43:18.203Z,24.7
2018-06-28T13:44:08.040Z,24.6
2018-06-28T13:44:58.044Z,24.7
2018-06-28T13:45:48.129Z,24.8
2018-06-28T13:46:38.495Z,24.8
2018-06-28T13:47:28.572Z,24.8
2018-06-28T13:48:18.619Z,24.9
2018-06-28T13:49:08.934Z,24.9
2018-06-28T13:49:58.447Z,24.9
2018-06-28T13:50:48.787Z,25
2018-06-28T13:51:38.549Z,25
2018-06-28T13:52:28.631Z,25.1
2018-06-28T13:53:18.675Z,25.1
2018-06-28T13:54:09.031Z,25.1
2018-06-28T13:54:59.077Z,25.2
2018-06-28T13:55:49.130Z,25.2
2018-06-28T13:56:39.211Z,25.3
2018-06-28T13:57:29.296Z,25.3
2018-06-28T13:58:19.367Z,25.4
2018-06-28T13:59:08.845Z,25.4
2018-06-28T13:59:59.494Z,25.4
2018-06-28T14:00:49.581Z,25.4
2018-06-28T14:01:39.317Z,25.4
2018-06-28T14:02:29.427Z,25.4
2018-06-28T14:03:19.370Z,25.3
2018-06-28T14:04:09.509Z,25.3
2018-06-28T14:04:59.847Z,25.2
2018-06-28T14:05:49.677Z,25.1
2018-06-28T14:06:39.964Z,25
2018-06-28T14:07:29.755Z,24.9
2018-06-28T14:08:19.523Z,24.8
2018-06-28T14:09:10.148Z,24.7
2018-06-28T14:09:59.942Z,24.6
2018-06-28T14:10:49.712Z,24.4
2018-06-28T14:11:40.349Z,24.3
2018-06-28T14:12:30.403Z,24.2
2018-06-28T14:13:20.470Z,24.1
2018-06-28T14:14:10.257Z,24
2018-06-28T14:15:00.599Z,23.9
2018-06-28T14:15:50.688Z,23.8
2018-06-28T14:16:40.712Z,23.8
2018-06-28T14:17:30.794Z,23.7
2018-06-28T14:18:20.574Z,23.6
2018-06-28T14:19:10.913Z,23.5
2018-06-28T14:20:00.686Z,23.4
2018-06-28T14:20:51.030Z,23.3
2018-06-28T14:21:41.078Z,23.3
2018-06-28T14:22:30.893Z,23.3
2018-06-28T14:23:20.941Z,23.1
2018-06-28T14:24:10.994Z,23.1
2018-06-28T14:25:01.339Z,23.1
2018-06-28T14:25:51.700Z,23
2018-06-28T14:26:41.464Z,22.9
2018-06-28T14:27:31.548Z,22.9
2018-06-28T14:28:21.594Z,22.9
2018-06-28T14:29:11.372Z,22.9
2018-06-28T14:30:01.713Z,22.9
2018-06-28T14:30:51.767Z,22.8
2018-06-28T14:31:41.840Z,22.8
2018-06-28T14:32:31.910Z,22.8
2018-06-28T14:33:21.953Z,22.9
2018-06-28T14:34:12.023Z,22.9
2018-06-28T14:35:02.273Z,22.9
2018-06-28T14:35:52.185Z,22.9
2018-06-28T14:36:42.213Z,23
2018-06-28T14:37:32.293Z,23
2018-06-28T14:38:22.361Z,23.1
2018-06-28T14:39:12.429Z,23.2
2018-06-28T14:40:01.897Z,23.3
2018-06-28T14:40:52.248Z,23.4
2018-06-28T14:41:42.789Z,23.4
2018-06-28T14:42:32.635Z,23.6
2018-06-28T14:43:22.478Z,23.7
2018-06-28T14:44:12.770Z,23.8
2018-06-28T14:45:03.738Z,23.8
2018-06-28T14:45:52.894Z,23.9
2018-06-28T14:46:42.966Z,23.9
2018-06-28T14:47:33.230Z,23.9
2018-06-28T14:48:23.100Z,24
2018-06-28T14:49:13.177Z,24.1
2018-06-28T14:50:02.962Z,24.1
2018-06-28T14:50:53.288Z,24.1
2018-06-28T14:51:43.355Z,24.2
2018-06-28T14:52:32.887Z,24.2
2018-06-28T14:53:23.495Z,24.3
2018-06-28T14:54:13.266Z,24.3
2018-06-28T14:55:03.607Z,24.3
2018-06-28T14:55:53.677Z,24.3
2018-06-28T14:56:43.728Z,24.3
2018-06-28T14:57:33.794Z,24.3
2018-06-28T14:58:23.855Z,24.3
2018-06-28T14:59:13.912Z,24.3
2018-06-28T15:00:03.992Z,24.3
2018-06-28T15:00:54.041Z,24.3
2018-06-28T15:01:43.840Z,24.3
2018-06-28T15:02:34.159Z,24.3
2018-06-28T15:03:23.959Z,24.2
2018-06-28T15:04:13.972Z,24.2
2018-06-28T15:05:04.092Z,24.1
2018-06-28T15:05:53.883Z,24.1
2018-06-28T15:06:44.207Z,24.1
2018-06-28T15:07:34.266Z,24.1
2018-06-28T15:08:24.335Z,24
2018-06-28T15:09:14.684Z,24
2018-06-28T15:10:04.752Z,24
2018-06-28T15:10:54.792Z,23.9
2018-06-28T15:11:44.898Z,23.9
2018-06-28T15:12:34.929Z,23.9
2018-06-28T15:13:24.984Z,23.9
2018-06-28T15:14:15.046Z,23.8
2018-06-28T15:15:05.110Z,23.8
2018-06-28T15:15:55.167Z,23.8
2018-06-28T15:16:45.234Z,23.8
2018-06-28T15:17:35.297Z,23.8
2018-06-28T15:18:25.355Z,23.8
2018-06-28T15:19:15.636Z,23.8
2018-06-28T15:20:05.197Z,23.7
2018-06-28T15:20:55.584Z,23.7
2018-06-28T15:21:45.636Z,23.7
2018-06-28T15:22:35.727Z,23.7
2018-06-28T15:23:25.743Z,23.7
2018-06-28T15:24:15.797Z,23.7
2018-06-28T15:25:05.868Z,23.7
2018-06-28T15:25:55.658Z,23.6
2018-06-28T15:26:46.003Z,23.6
2018-06-28T15:27:36.183Z,23.6
2018-06-28T15:28:26.127Z,23.6
2018-06-28T15:29:16.188Z,23.6
2018-06-28T15:30:05.679Z,23.6
2018-06-28T15:30:56.029Z,23.5
2018-06-28T15:31:46.394Z,23.4
2018-06-28T15:32:35.882Z,23.4
2018-06-28T15:33:26.747Z,23.4
2018-06-28T15:34:16.303Z,23.3
2018-06-28T15:35:06.628Z,23.3
2018-06-28T15:35:56.758Z,23.3
2018-06-28T15:36:46.753Z,23.3
2018-06-28T15:37:36.803Z,23.2
2018-06-28T15:38:26.295Z,23.2
2018-06-28T15:39:16.935Z,23.1
2018-06-28T15:40:06.995Z,23.1
2018-06-28T15:40:56.598Z,23
2018-06-28T15:41:47.130Z,22.9
2018-06-28T15:42:37.165Z,22.9
2018-06-28T15:43:26.950Z,22.8
2018-06-28T15:44:17.307Z,22.8
2018-06-28T15:45:07.084Z,22.8
2018-06-28T15:45:57.488Z,22.7
2018-06-28T15:46:46.933Z,22.6
2018-06-28T15:47:37.331Z,22.6
2018-06-28T15:48:27.634Z,22.5
2018-06-28T15:49:17.674Z,22.4
2018-06-28T15:50:07.743Z,22.4
2018-06-28T15:50:57.792Z,22.3
2018-06-28T15:51:47.855Z,22.3
2018-06-28T15:52:37.943Z,22.3
2018-06-28T15:53:27.987Z,22.1
2018-06-28T15:54:17.492Z,22.1
2018-06-28T15:55:08.100Z,22
2018-06-28T15:55:57.905Z,22
2018-06-28T15:56:48.244Z,21.9
2018-06-28T15:57:38.505Z,21.9
2018-06-28T15:58:27.858Z,21.8
2018-06-28T15:59:18.227Z,21.8
2018-06-28T16:00:08.530Z,21.8
2018-06-28T16:00:58.556Z,21.8
2018-06-28T16:01:48.614Z,21.7
2018-06-28T16:02:38.215Z,21.7
2018-06-28T16:03:28.477Z,21.6
2018-06-28T16:04:18.542Z,21.6
2018-06-28T16:05:08.617Z,21.6
2018-06-28T16:05:58.938Z,21.6
2018-06-28T16:06:48.720Z,21.5
2018-06-28T16:07:39.075Z,21.5
2018-06-28T16:08:29.118Z,21.5
2018-06-28T16:09:19.184Z,21.4
2018-06-28T16:10:08.739Z,21.4
2018-06-28T16:10:59.051Z,21.4
2018-06-28T16:11:49.157Z,21.4
2018-06-28T16:12:38.866Z,21.3
2018-06-28T16:13:29.501Z,21.3
2018-06-28T16:14:19.547Z,21.3
2018-06-28T16:15:09.336Z,21.3
2018-06-28T16:15:59.689Z,21.2
2018-06-28T16:18:29.868Z,21.1
2018-06-28T16:19:19.922Z,21.1
2018-06-28T16:20:10.001Z,21
2018-06-28T16:20:59.803Z,21
2018-06-28T16:21:50.138Z,21
2018-06-28T16:22:40.192Z,20.9
2018-06-28T16:23:30.583Z,20.9
2018-06-28T16:24:19.759Z,20.9
2018-06-28T16:25:10.096Z,20.9
2018-06-28T16:26:00.217Z,20.9
2018-06-28T16:26:50.528Z,20.9
2018-06-28T16:27:40.577Z,20.9
2018-06-28T16:28:30.647Z,20.9
2018-06-28T16:29:20.722Z,20.9
2018-06-28T16:30:10.784Z,20.8
2018-06-28T16:31:00.265Z,20.8
2018-06-28T16:31:50.917Z,20.8
2018-06-28T16:32:40.682Z,20.8
2018-06-28T16:33:31.014Z,20.8
2018-06-28T16:34:21.129Z,20.8
2018-06-28T16:35:11.141Z,20.8
2018-06-28T16:36:01.214Z,20.8
2018-06-28T16:36:51.003Z,20.8
2018-06-28T16:37:41.052Z,20.8
2018-06-28T16:38:31.382Z,20.8
2018-06-28T16:39:21.622Z,20.8
2018-06-28T16:40:11.528Z,20.8
2018-06-28T16:41:01.572Z,20.8
2018-06-28T16:41:51.637Z,20.8
2018-06-28T16:42:41.421Z,20.8
2018-06-28T16:43:31.478Z,20.8
2018-06-28T16:44:21.870Z,20.7
2018-06-28T16:45:11.906Z,20.7
2018-06-28T16:46:01.983Z,20.7
2018-06-28T16:46:52.028Z,20.6
2018-06-28T16:47:42.080Z,20.6
2018-06-28T16:48:32.149Z,20.6
2018-06-28T16:49:21.680Z,20.5
2018-06-28T16:50:12.287Z,20.5
2018-06-28T16:51:02.123Z,20.4
2018-06-28T16:51:52.128Z,20.4
2018-06-28T16:52:42.190Z,20.3
2018-06-28T16:53:32.242Z,20.3
2018-06-28T16:54:22.326Z,20.2
2018-06-28T16:55:12.657Z,20.2
2018-06-28T16:56:02.763Z,20.1
2018-06-28T16:56:52.804Z,20.1
2018-06-28T16:57:43.101Z,19.9
2018-06-28T16:58:32.898Z,19.9
2018-06-28T16:59:23.309Z,19.8
2018-06-28T17:00:13.021Z,19.8
2018-06-28T17:01:03.096Z,19.7
2018-06-28T17:01:53.148Z,19.6
2018-06-28T17:02:43.202Z,19.6
2018-06-28T17:03:33.265Z,19.5
2018-06-28T17:04:23.659Z,19.4
2018-06-28T17:05:13.393Z,19.4
2018-06-28T17:06:03.464Z,19.3
2018-06-28T17:06:53.533Z,19.3
2018-06-28T17:07:44.018Z,19.2
2018-06-28T17:08:33.653Z,19.1
2018-06-28T17:09:23.433Z,19.1
2018-06-28T17:10:13.755Z,19.1
2018-06-28T17:11:03.847Z,19
2018-06-28T17:11:53.893Z,18.9
2018-06-28T17:12:43.965Z,18.9
2018-06-28T17:13:34.017Z,18.9
2018-06-28T17:14:24.244Z,18.8
2018-06-28T17:15:14.147Z,18.8
2018-06-28T17:16:03.942Z,18.8
2018-06-28T17:16:54.287Z,18.8
2018-06-28T17:18:34.405Z,18.6
2018-06-28T17:19:24.484Z,18.6
2018-06-28T17:20:14.545Z,18.6
2018-06-28T17:21:04.593Z,18.5
2018-06-28T17:21:54.648Z,18.5
2018-06-28T17:22:44.729Z,18.4
2018-06-28T17:23:34.817Z,18.4
2018-06-28T17:24:24.380Z,18.4
2018-06-28T17:25:14.613Z,18.4
2018-06-28T17:26:04.415Z,18.3
2018-06-28T17:26:54.814Z,18.3
2018-06-28T17:27:44.817Z,18.3
2018-06-28T17:28:34.624Z,18.3
2018-06-28T17:29:25.252Z,18.2
2018-06-28T17:30:15.292Z,18.2
2018-06-28T17:31:05.360Z,18.1
2018-06-28T17:31:55.958Z,18.1
2018-06-28T17:32:45.612Z,18.1
2018-06-28T17:33:35.550Z,18.1
2018-06-28T17:34:25.594Z,18
2018-06-28T17:35:15.104Z,18
2018-06-28T17:36:05.739Z,17.9
2018-06-28T17:36:55.791Z,17.9
2018-06-28T17:37:45.905Z,17.9
2018-06-28T17:38:35.922Z,17.9
2018-06-28T17:39:25.714Z,17.8
2018-06-28T17:40:16.029Z,17.8
2018-06-28T17:41:05.556Z,17.8
2018-06-28T17:41:56.165Z,17.8
2018-06-28T17:42:46.047Z,17.7
2018-06-28T17:43:36.288Z,17.7
2018-06-28T17:44:26.382Z,17.6
2018-06-28T17:45:16.464Z,17.6
2018-06-28T17:46:06.188Z,17.6
2018-06-28T17:46:56.540Z,17.6
2018-06-28T17:47:46.343Z,17.6
2018-06-28T17:48:36.671Z,17.5
2018-06-28T17:49:26.727Z,17.5
2018-06-28T17:50:16.793Z,17.4
2018-06-28T17:51:07.437Z,17.4
2018-06-28T17:51:56.915Z,17.4
2018-06-28T17:52:46.996Z,17.4
2018-06-28T17:53:37.050Z,17.3
2018-06-28T17:54:27.168Z,17.3
2018-06-28T17:55:17.171Z,17.3
2018-06-28T17:56:07.237Z,17.3
2018-06-28T17:56:57.308Z,17.3
2018-06-28T17:57:47.095Z,17.2
2018-06-28T17:58:37.408Z,17.2
2018-06-28T17:59:27.508Z,17.1
2018-06-28T18:00:17.563Z,17.1
2018-06-28T18:01:07.603Z,17.1
2018-06-28T18:01:57.679Z,17.1
2018-06-28T18:02:47.734Z,17.1
2018-06-28T18:06:07.719Z,16.9
2018-06-28T18:06:57.780Z,16.9
2018-06-28T18:07:47.852Z,16.9
2018-06-28T18:08:38.190Z,16.9
2018-06-28T18:09:28.308Z,16.9
2018-06-28T18:10:18.312Z,16.8
2018-06-28T18:11:08.357Z,16.8
2018-06-28T18:11:58.417Z,16.8
2018-06-28T18:12:48.877Z,16.8
2018-06-28T18:13:38.662Z,16.8
2018-06-28T18:14:28.615Z,16.7
2018-06-28T18:15:18.906Z,16.7
2018-06-28T18:16:08.748Z,16.7
2018-06-28T18:16:58.542Z,16.7
2018-06-28T18:17:48.869Z,16.6
2018-06-28T18:18:39.009Z,16.6
2018-06-28T18:19:29.005Z,16.6
2018-06-28T18:20:18.780Z,16.6
2018-06-28T18:21:09.112Z,16.6
2018-06-28T18:21:58.891Z,16.5
2018-06-28T18:22:48.771Z,16.5
2018-06-28T18:23:38.276Z,16.5
2018-06-28T18:24:28.877Z,16.4
2018-06-28T18:25:19.182Z,16.4
2018-06-28T18:26:09.228Z,16.4
2018-06-28T18:26:59.284Z,16.4
2018-06-28T18:27:49.352Z,16.4
2018-06-28T18:28:39.691Z,16.4
2018-06-28T18:29:29.475Z,16.4
2018-06-28T18:30:20.105Z,16.3
2018-06-28T18:31:09.589Z,16.3
2018-06-28T18:31:59.933Z,16.3
2018-06-28T18:32:50.038Z,16.3
2018-06-28T18:33:40.080Z,16.3
2018-06-28T18:34:29.856Z,16.3
2018-06-28T18:35:19.900Z,16.3
2018-06-28T18:36:10.234Z,16.2
2018-06-28T18:37:00.296Z,16.2
2018-06-28T18:37:50.084Z,16.1
2018-06-28T18:38:40.440Z,16.1
2018-06-28T18:39:30.508Z,16.1
2018-06-28T18:40:20.603Z,16.1
2018-06-28T18:41:10.630Z,16.1
2018-06-28T18:42:00.139Z,16.1
2018-06-28T18:42:50.745Z,16
2018-06-28T18:43:40.834Z,16
2018-06-28T18:44:30.609Z,16
2018-06-28T18:45:20.667Z,16
2018-06-28T18:46:11.005Z,15.9
2018-06-28T18:47:00.784Z,15.9
2018-06-28T18:47:50.566Z,15.9
2018-06-28T18:48:41.207Z,15.9
2018-06-28T18:49:30.712Z,15.9
2018-06-28T18:50:21.046Z,15.9
2018-06-28T18:51:11.370Z,15.9
2018-06-28T18:52:01.455Z,15.9
2018-06-28T18:52:51.228Z,15.8
2018-06-28T18:53:41.631Z,15.8
2018-06-28T18:54:31.634Z,15.8
2018-06-28T18:55:21.403Z,15.8
2018-06-28T18:56:11.779Z,15.8
2018-06-28T18:57:01.826Z,15.8
2018-06-28T18:57:51.901Z,15.8
2018-06-28T18:58:41.950Z,15.8
2018-06-28T18:59:31.999Z,15.7
2018-06-28T19:00:21.803Z,15.7
2018-06-28T19:01:12.120Z,15.7
2018-06-28T19:02:02.367Z,15.7
2018-06-28T19:02:51.978Z,15.7
2018-06-28T19:03:42.330Z,15.7
2018-06-28T19:04:32.111Z,15.6
2018-06-28T19:05:22.155Z,15.6
2018-06-28T19:06:12.245Z,15.6
2018-06-28T19:07:02.561Z,15.6
2018-06-28T19:07:52.667Z,15.6
2018-06-28T19:08:42.453Z,15.6
2018-06-28T19:09:32.754Z,15.6
2018-06-28T19:10:22.563Z,15.6
2018-06-28T19:11:12.879Z,15.5
2018-06-28T19:12:02.937Z,15.5
2018-06-28T19:12:53.016Z,15.5
2018-06-28T19:13:43.134Z,15.5
2018-06-28T19:14:32.731Z,15.5
2018-06-28T19:15:23.196Z,15.5
2018-06-28T19:16:12.999Z,15.4
2018-06-28T19:17:03.331Z,15.4
2018-06-28T19:17:53.392Z,15.4
2018-06-28T19:18:43.466Z,15.4
2018-06-28T19:19:33.520Z,15.4
2018-06-28T19:20:23.029Z,15.4
2018-06-28T19:21:13.927Z,15.4
2018-06-28T19:22:03.701Z,15.4
2018-06-28T19:22:53.751Z,15.4
2018-06-28T19:23:43.822Z,15.4
2018-06-28T19:24:33.924Z,15.4
2018-06-28T19:25:23.972Z,15.4
2018-06-28T19:26:13.748Z,15.4
2018-06-28T19:27:03.810Z,15.4
2018-06-28T19:27:54.132Z,15.4
2018-06-28T19:28:43.917Z,15.4
2018-06-28T19:29:34.050Z,15.3
2018-06-28T19:30:24.075Z,15.3